sensor_id;sensor_type;location;lat;lon;timestamp;P1;durP1;ratioP1;P2;durP2;ratioP2
81591;SDS011;71014;53.394;6.724;2023-07-02T00:02:03;10.48;;;4.03;;
81591;SDS011;71014;53.394;6.724;2023-07-02T00:04:29;13.10;;;4.40;;
81591;SDS011;71014;53.394;6.724;2023-07-02T00:06:57;11.85;;;4.45;;
81591;SDS011;71014;53.394;6.724;2023-07-02T00:09:23;7.32;;;3.83;;
81591;SDS011;71014;53.394;6.724;2023-07-02T00:11:49;15.15;;;5.22;;
81591;SDS011;71014;53.394;6.724;2023-07-02T00:14:15;14.45;;;4.82;;
81591;SDS011;71014;53.394;6.724;2023-07-02T00:16:44;15.95;;;5.35;;
81591;SDS011;71014;53.394;6.724;2023-07-02T00:19:11;12.80;;;4.05;;
81591;SDS011;71014;53.394;6.724;2023-07-02T00:21:37;12.38;;;4.63;;
81591;SDS011;71014;53.394;6.724;2023-07-02T00:24:04;13.27;;;4.32;;
81591;SDS011;71014;53.394;6.724;2023-07-02T00:26:30;11.80;;;4.57;;
81591;SDS011;71014;53.394;6.724;2023-07-02T00:28:56;14.68;;;5.07;;
81591;SDS011;71014;53.394;6.724;2023-07-02T00:31:22;12.35;;;5.15;;
81591;SDS011;71014;53.394;6.724;2023-07-02T00:33:49;16.42;;;4.45;;
81591;SDS011;71014;53.394;6.724;2023-07-02T00:36:16;10.95;;;4.38;;
81591;SDS011;71014;53.394;6.724;2023-07-02T00:38:44;14.20;;;5.03;;
81591;SDS011;71014;53.394;6.724;2023-07-02T00:41:11;14.75;;;4.72;;
81591;SDS011;71014;53.394;6.724;2023-07-02T00:43:37;15.90;;;5.38;;
81591;SDS011;71014;53.394;6.724;2023-07-02T00:46:13;14.85;;;5.75;;
81591;SDS011;71014;53.394;6.724;2023-07-02T00:48:52;12.07;;;4.57;;
81591;SDS011;71014;53.394;6.724;2023-07-02T00:51:22;13.35;;;5.63;;
81591;SDS011;71014;53.394;6.724;2023-07-02T00:53:49;14.40;;;5.03;;
81591;SDS011;71014;53.394;6.724;2023-07-02T00:56:16;15.80;;;4.13;;
81591;SDS011;71014;53.394;6.724;2023-07-02T00:58:43;18.45;;;4.40;;
81591;SDS011;71014;53.394;6.724;2023-07-02T01:01:12;17.15;;;5.43;;
81591;SDS011;71014;53.394;6.724;2023-07-02T01:06:04;11.90;;;4.93;;
81591;SDS011;71014;53.394;6.724;2023-07-02T01:08:30;10.00;;;4.30;;
81591;SDS011;71014;53.394;6.724;2023-07-02T01:10:57;20.77;;;6.15;;
81591;SDS011;71014;53.394;6.724;2023-07-02T01:13:24;17.25;;;5.25;;
81591;SDS011;71014;53.394;6.724;2023-07-02T01:15:51;16.60;;;6.40;;
81591;SDS011;71014;53.394;6.724;2023-07-02T01:18:17;16.85;;;5.13;;
81591;SDS011;71014;53.394;6.724;2023-07-02T01:20:43;20.90;;;5.55;;
81591;SDS011;71014;53.394;6.724;2023-07-02T01:23:10;19.27;;;7.07;;
81591;SDS011;71014;53.394;6.724;2023-07-02T01:25:36;17.08;;;5.28;;
81591;SDS011;71014;53.394;6.724;2023-07-02T01:28:02;19.95;;;6.20;;
81591;SDS011;71014;53.394;6.724;2023-07-02T01:30:28;18.60;;;5.80;;
81591;SDS011;71014;53.394;6.724;2023-07-02T01:32:54;17.48;;;5.50;;
81591;SDS011;71014;53.394;6.724;2023-07-02T01:35:21;18.48;;;5.95;;
81591;SDS011;71014;53.394;6.724;2023-07-02T01:37:47;15.30;;;5.80;;
81591;SDS011;71014;53.394;6.724;2023-07-02T01:40:13;15.20;;;5.88;;
81591;SDS011;71014;53.394;6.724;2023-07-02T01:42:39;14.38;;;5.40;;
81591;SDS011;71014;53.394;6.724;2023-07-02T01:45:05;21.35;;;5.50;;
81591;SDS011;71014;53.394;6.724;2023-07-02T01:47:31;17.67;;;5.32;;
81591;SDS011;71014;53.394;6.724;2023-07-02T01:49:57;17.38;;;5.45;;
81591;SDS011;71014;53.394;6.724;2023-07-02T01:52:23;15.73;;;6.38;;
81591;SDS011;71014;53.394;6.724;2023-07-02T01:54:49;15.98;;;6.07;;
81591;SDS011;71014;53.394;6.724;2023-07-02T01:57:20;13.93;;;6.07;;
81591;SDS011;71014;53.394;6.724;2023-07-02T01:59:46;15.80;;;4.82;;
81591;SDS011;71014;53.394;6.724;2023-07-02T02:02:12;18.25;;;6.60;;
81591;SDS011;71014;53.394;6.724;2023-07-02T02:04:38;12.75;;;4.25;;
81591;SDS011;71014;53.394;6.724;2023-07-02T02:07:04;26.20;;;8.40;;
81591;SDS011;71014;53.394;6.724;2023-07-02T02:09:30;19.77;;;5.97;;
81591;SDS011;71014;53.394;6.724;2023-07-02T02:11:57;22.85;;;6.75;;
81591;SDS011;71014;53.394;6.724;2023-07-02T02:14:23;18.98;;;6.13;;
81591;SDS011;71014;53.394;6.724;2023-07-02T02:16:49;17.58;;;6.15;;
81591;SDS011;71014;53.394;6.724;2023-07-02T02:19:15;14.90;;;6.18;;
81591;SDS011;71014;53.394;6.724;2023-07-02T02:21:42;18.60;;;5.95;;
81591;SDS011;71014;53.394;6.724;2023-07-02T02:24:08;21.42;;;6.05;;
81591;SDS011;71014;53.394;6.724;2023-07-02T02:26:34;17.35;;;5.95;;
81591;SDS011;71014;53.394;6.724;2023-07-02T02:29:00;19.55;;;6.63;;
81591;SDS011;71014;53.394;6.724;2023-07-02T02:31:26;18.08;;;5.32;;
81591;SDS011;71014;53.394;6.724;2023-07-02T02:33:53;18.70;;;6.07;;
81591;SDS011;71014;53.394;6.724;2023-07-02T02:36:19;19.25;;;6.35;;
81591;SDS011;71014;53.394;6.724;2023-07-02T02:38:45;16.75;;;5.53;;
81591;SDS011;71014;53.394;6.724;2023-07-02T02:41:11;16.63;;;5.47;;
81591;SDS011;71014;53.394;6.724;2023-07-02T02:43:40;22.77;;;6.72;;
81591;SDS011;71014;53.394;6.724;2023-07-02T02:46:07;16.05;;;5.78;;
81591;SDS011;71014;53.394;6.724;2023-07-02T02:48:33;18.10;;;6.53;;
81591;SDS011;71014;53.394;6.724;2023-07-02T02:50:59;18.00;;;6.78;;
81591;SDS011;71014;53.394;6.724;2023-07-02T02:53:25;17.10;;;5.70;;
81591;SDS011;71014;53.394;6.724;2023-07-02T02:55:51;17.63;;;5.55;;
81591;SDS011;71014;53.394;6.724;2023-07-02T02:58:18;15.27;;;5.47;;
81591;SDS011;71014;53.394;6.724;2023-07-02T03:00:44;22.45;;;6.78;;
81591;SDS011;71014;53.394;6.724;2023-07-02T03:03:12;21.20;;;6.10;;
81591;SDS011;71014;53.394;6.724;2023-07-02T03:05:38;13.20;;;5.43;;
81591;SDS011;71014;53.394;6.724;2023-07-02T03:08:05;16.25;;;5.40;;
81591;SDS011;71014;53.394;6.724;2023-07-02T03:10:31;22.05;;;6.13;;
81591;SDS011;71014;53.394;6.724;2023-07-02T03:12:57;24.08;;;7.20;;
81591;SDS011;71014;53.394;6.724;2023-07-02T03:15:23;20.08;;;6.30;;
81591;SDS011;71014;53.394;6.724;2023-07-02T03:17:49;15.88;;;6.30;;
81591;SDS011;71014;53.394;6.724;2023-07-02T03:20:15;14.57;;;6.18;;
81591;SDS011;71014;53.394;6.724;2023-07-02T03:22:41;18.50;;;6.00;;
81591;SDS011;71014;53.394;6.724;2023-07-02T03:25:08;20.90;;;6.57;;
81591;SDS011;71014;53.394;6.724;2023-07-02T03:27:34;18.48;;;5.82;;
81591;SDS011;71014;53.394;6.724;2023-07-02T03:30:00;14.93;;;5.82;;
81591;SDS011;71014;53.394;6.724;2023-07-02T03:32:26;12.98;;;5.32;;
81591;SDS011;71014;53.394;6.724;2023-07-02T03:34:52;17.98;;;6.43;;
81591;SDS011;71014;53.394;6.724;2023-07-02T03:37:18;13.68;;;4.82;;
81591;SDS011;71014;53.394;6.724;2023-07-02T03:39:44;16.58;;;7.05;;
81591;SDS011;71014;53.394;6.724;2023-07-02T03:42:10;17.30;;;6.43;;
81591;SDS011;71014;53.394;6.724;2023-07-02T03:44:36;20.55;;;6.47;;
81591;SDS011;71014;53.394;6.724;2023-07-02T03:47:02;20.30;;;7.28;;
81591;SDS011;71014;53.394;6.724;2023-07-02T03:49:28;25.83;;;6.28;;
81591;SDS011;71014;53.394;6.724;2023-07-02T03:51:54;17.05;;;5.88;;
81591;SDS011;71014;53.394;6.724;2023-07-02T03:54:20;21.10;;;6.32;;
81591;SDS011;71014;53.394;6.724;2023-07-02T03:56:46;14.90;;;5.35;;
81591;SDS011;71014;53.394;6.724;2023-07-02T03:59:12;16.45;;;5.28;;
81591;SDS011;71014;53.394;6.724;2023-07-02T04:01:38;19.98;;;6.05;;
81591;SDS011;71014;53.394;6.724;2023-07-02T04:04:04;22.33;;;6.03;;
81591;SDS011;71014;53.394;6.724;2023-07-02T04:06:30;19.38;;;6.25;;
81591;SDS011;71014;53.394;6.724;2023-07-02T04:08:57;17.83;;;6.13;;
81591;SDS011;71014;53.394;6.724;2023-07-02T04:11:22;13.93;;;5.60;;
81591;SDS011;71014;53.394;6.724;2023-07-02T04:13:48;16.77;;;6.00;;
81591;SDS011;71014;53.394;6.724;2023-07-02T04:16:15;18.05;;;5.57;;
81591;SDS011;71014;53.394;6.724;2023-07-02T04:18:41;16.42;;;5.85;;
81591;SDS011;71014;53.394;6.724;2023-07-02T04:21:07;19.95;;;6.10;;
81591;SDS011;71014;53.394;6.724;2023-07-02T04:23:33;19.90;;;5.68;;
81591;SDS011;71014;53.394;6.724;2023-07-02T04:25:58;19.70;;;6.00;;
81591;SDS011;71014;53.394;6.724;2023-07-02T04:28:24;15.13;;;6.35;;
81591;SDS011;71014;53.394;6.724;2023-07-02T04:30:51;14.10;;;5.97;;
81591;SDS011;71014;53.394;6.724;2023-07-02T04:33:18;20.70;;;6.25;;
81591;SDS011;71014;53.394;6.724;2023-07-02T04:35:44;17.35;;;5.72;;
81591;SDS011;71014;53.394;6.724;2023-07-02T04:38:10;14.95;;;5.68;;
81591;SDS011;71014;53.394;6.724;2023-07-02T04:40:37;19.42;;;6.07;;
81591;SDS011;71014;53.394;6.724;2023-07-02T04:43:03;19.00;;;6.15;;
81591;SDS011;71014;53.394;6.724;2023-07-02T04:48:00;14.20;;;5.68;;
81591;SDS011;71014;53.394;6.724;2023-07-02T04:50:26;13.15;;;5.80;;
81591;SDS011;71014;53.394;6.724;2023-07-02T04:52:52;13.23;;;5.63;;
81591;SDS011;71014;53.394;6.724;2023-07-02T04:55:18;11.88;;;4.80;;
81591;SDS011;71014;53.394;6.724;2023-07-02T04:57:44;17.25;;;5.03;;
81591;SDS011;71014;53.394;6.724;2023-07-02T05:00:10;12.23;;;5.00;;
81591;SDS011;71014;53.394;6.724;2023-07-02T05:02:38;15.88;;;5.35;;
81591;SDS011;71014;53.394;6.724;2023-07-02T05:05:04;15.30;;;4.72;;
81591;SDS011;71014;53.394;6.724;2023-07-02T05:07:30;14.02;;;4.75;;
81591;SDS011;71014;53.394;6.724;2023-07-02T05:09:56;16.67;;;4.35;;
81591;SDS011;71014;53.394;6.724;2023-07-02T05:12:23;11.02;;;4.38;;
81591;SDS011;71014;53.394;6.724;2023-07-02T05:14:49;17.27;;;4.50;;
81591;SDS011;71014;53.394;6.724;2023-07-02T05:17:15;12.95;;;4.53;;
81591;SDS011;71014;53.394;6.724;2023-07-02T05:19:41;15.50;;;5.03;;
81591;SDS011;71014;53.394;6.724;2023-07-02T05:22:10;12.25;;;4.70;;
81591;SDS011;71014;53.394;6.724;2023-07-02T05:24:36;9.77;;;3.88;;
81591;SDS011;71014;53.394;6.724;2023-07-02T05:27:02;11.75;;;3.88;;
81591;SDS011;71014;53.394;6.724;2023-07-02T05:29:28;12.27;;;4.22;;
81591;SDS011;71014;53.394;6.724;2023-07-02T05:31:54;10.77;;;3.72;;
81591;SDS011;71014;53.394;6.724;2023-07-02T05:34:20;11.07;;;3.50;;
81591;SDS011;71014;53.394;6.724;2023-07-02T05:36:46;10.57;;;3.42;;
81591;SDS011;71014;53.394;6.724;2023-07-02T05:39:12;10.82;;;3.97;;
81591;SDS011;71014;53.394;6.724;2023-07-02T05:41:39;9.35;;;3.80;;
81591;SDS011;71014;53.394;6.724;2023-07-02T05:44:05;9.27;;;3.70;;
81591;SDS011;71014;53.394;6.724;2023-07-02T05:46:31;16.15;;;5.18;;
81591;SDS011;71014;53.394;6.724;2023-07-02T05:48:57;12.85;;;3.65;;
81591;SDS011;71014;53.394;6.724;2023-07-02T05:51:24;11.90;;;3.90;;
81591;SDS011;71014;53.394;6.724;2023-07-02T05:53:51;12.45;;;3.92;;
81591;SDS011;71014;53.394;6.724;2023-07-02T05:56:17;9.98;;;3.88;;
81591;SDS011;71014;53.394;6.724;2023-07-02T05:58:45;10.43;;;3.72;;
81591;SDS011;71014;53.394;6.724;2023-07-02T06:01:11;10.63;;;3.33;;
81591;SDS011;71014;53.394;6.724;2023-07-02T06:03:38;13.13;;;4.13;;
81591;SDS011;71014;53.394;6.724;2023-07-02T06:06:04;11.88;;;3.40;;
81591;SDS011;71014;53.394;6.724;2023-07-02T06:08:30;11.00;;;3.08;;
81591;SDS011;71014;53.394;6.724;2023-07-02T06:10:56;14.40;;;3.67;;
81591;SDS011;71014;53.394;6.724;2023-07-02T06:13:22;12.45;;;3.65;;
81591;SDS011;71014;53.394;6.724;2023-07-02T06:15:48;12.40;;;3.70;;
81591;SDS011;71014;53.394;6.724;2023-07-02T06:18:14;9.70;;;3.13;;
81591;SDS011;71014;53.394;6.724;2023-07-02T06:20:41;10.20;;;3.38;;
81591;SDS011;71014;53.394;6.724;2023-07-02T06:23:07;11.60;;;2.78;;
81591;SDS011;71014;53.394;6.724;2023-07-02T06:25:33;12.18;;;3.42;;
81591;SDS011;71014;53.394;6.724;2023-07-02T06:27:59;11.27;;;3.47;;
81591;SDS011;71014;53.394;6.724;2023-07-02T06:30:25;9.82;;;3.53;;
81591;SDS011;71014;53.394;6.724;2023-07-02T06:32:51;9.32;;;3.13;;
81591;SDS011;71014;53.394;6.724;2023-07-02T06:35:18;10.35;;;3.42;;
81591;SDS011;71014;53.394;6.724;2023-07-02T06:37:45;11.98;;;3.38;;
81591;SDS011;71014;53.394;6.724;2023-07-02T06:40:11;11.77;;;3.35;;
81591;SDS011;71014;53.394;6.724;2023-07-02T06:42:37;13.52;;;3.72;;
81591;SDS011;71014;53.394;6.724;2023-07-02T06:45:04;6.88;;;3.00;;
81591;SDS011;71014;53.394;6.724;2023-07-02T06:47:30;6.03;;;3.03;;
81591;SDS011;71014;53.394;6.724;2023-07-02T06:49:56;11.85;;;3.70;;
81591;SDS011;71014;53.394;6.724;2023-07-02T06:52:23;5.25;;;2.72;;
81591;SDS011;71014;53.394;6.724;2023-07-02T06:54:49;10.90;;;2.92;;
81591;SDS011;71014;53.394;6.724;2023-07-02T06:57:15;6.25;;;2.25;;
81591;SDS011;71014;53.394;6.724;2023-07-02T06:59:41;16.42;;;3.17;;
81591;SDS011;71014;53.394;6.724;2023-07-02T07:02:07;10.45;;;3.40;;
81591;SDS011;71014;53.394;6.724;2023-07-02T07:04:33;9.77;;;3.13;;
81591;SDS011;71014;53.394;6.724;2023-07-02T07:07:00;9.80;;;2.85;;
81591;SDS011;71014;53.394;6.724;2023-07-02T07:09:28;8.95;;;2.92;;
81591;SDS011;71014;53.394;6.724;2023-07-02T07:11:54;9.70;;;2.75;;
81591;SDS011;71014;53.394;6.724;2023-07-02T07:14:20;8.50;;;2.92;;
81591;SDS011;71014;53.394;6.724;2023-07-02T07:16:46;11.20;;;2.42;;
81591;SDS011;71014;53.394;6.724;2023-07-02T07:19:12;7.55;;;2.00;;
81591;SDS011;71014;53.394;6.724;2023-07-02T07:21:38;11.60;;;3.53;;
81591;SDS011;71014;53.394;6.724;2023-07-02T07:24:05;9.30;;;2.67;;
81591;SDS011;71014;53.394;6.724;2023-07-02T07:26:31;9.48;;;2.67;;
81591;SDS011;71014;53.394;6.724;2023-07-02T07:28:57;8.98;;;2.40;;
81591;SDS011;71014;53.394;6.724;2023-07-02T07:31:23;7.93;;;2.25;;
81591;SDS011;71014;53.394;6.724;2023-07-02T07:36:15;7.70;;;2.20;;
81591;SDS011;71014;53.394;6.724;2023-07-02T07:38:44;9.68;;;2.50;;
81591;SDS011;71014;53.394;6.724;2023-07-02T07:41:10;11.20;;;3.15;;
81591;SDS011;71014;53.394;6.724;2023-07-02T07:43:36;11.20;;;2.60;;
81591;SDS011;71014;53.394;6.724;2023-07-02T07:46:02;6.65;;;2.50;;
81591;SDS011;71014;53.394;6.724;2023-07-02T07:48:28;7.22;;;2.33;;
81591;SDS011;71014;53.394;6.724;2023-07-02T07:50:54;5.88;;;1.92;;
81591;SDS011;71014;53.394;6.724;2023-07-02T07:53:20;5.30;;;2.10;;
81591;SDS011;71014;53.394;6.724;2023-07-02T07:55:46;9.95;;;2.30;;
81591;SDS011;71014;53.394;6.724;2023-07-02T07:58:13;7.35;;;2.13;;
81591;SDS011;71014;53.394;6.724;2023-07-02T08:00:39;8.60;;;2.35;;
81591;SDS011;71014;53.394;6.724;2023-07-02T08:03:05;7.63;;;2.03;;
81591;SDS011;71014;53.394;6.724;2023-07-02T08:05:31;7.18;;;2.13;;
81591;SDS011;71014;53.394;6.724;2023-07-02T08:07:57;7.53;;;2.10;;
81591;SDS011;71014;53.394;6.724;2023-07-02T08:12:50;11.80;;;2.15;;
81591;SDS011;71014;53.394;6.724;2023-07-02T08:15:17;9.02;;;2.10;;
81591;SDS011;71014;53.394;6.724;2023-07-02T08:17:43;9.48;;;2.42;;
81591;SDS011;71014;53.394;6.724;2023-07-02T08:20:09;12.30;;;2.85;;
81591;SDS011;71014;53.394;6.724;2023-07-02T08:25:01;4.47;;;2.15;;
81591;SDS011;71014;53.394;6.724;2023-07-02T08:27:27;6.18;;;2.00;;
81591;SDS011;71014;53.394;6.724;2023-07-02T08:29:53;3.67;;;1.85;;
81591;SDS011;71014;53.394;6.724;2023-07-02T08:32:19;8.30;;;2.28;;
81591;SDS011;71014;53.394;6.724;2023-07-02T08:34:45;13.07;;;2.17;;
81591;SDS011;71014;53.394;6.724;2023-07-02T08:37:12;7.38;;;2.00;;
81591;SDS011;71014;53.394;6.724;2023-07-02T08:39:38;5.88;;;2.38;;
81591;SDS011;71014;53.394;6.724;2023-07-02T08:42:05;5.97;;;1.90;;
81591;SDS011;71014;53.394;6.724;2023-07-02T08:44:31;7.40;;;1.98;;
81591;SDS011;71014;53.394;6.724;2023-07-02T08:46:57;7.88;;;2.45;;
81591;SDS011;71014;53.394;6.724;2023-07-02T08:49:24;10.45;;;2.63;;
81591;SDS011;71014;53.394;6.724;2023-07-02T08:54:19;10.73;;;2.53;;
81591;SDS011;71014;53.394;6.724;2023-07-02T08:56:45;5.50;;;2.20;;
81591;SDS011;71014;53.394;6.724;2023-07-02T08:59:12;10.05;;;2.70;;
81591;SDS011;71014;53.394;6.724;2023-07-02T09:04:04;4.97;;;2.30;;
81591;SDS011;71014;53.394;6.724;2023-07-02T09:06:30;5.80;;;2.22;;
81591;SDS011;71014;53.394;6.724;2023-07-02T09:09:05;8.88;;;2.60;;
81591;SDS011;71014;53.394;6.724;2023-07-02T09:11:31;6.22;;;2.35;;
81591;SDS011;71014;53.394;6.724;2023-07-02T09:13:57;6.95;;;2.05;;
81591;SDS011;71014;53.394;6.724;2023-07-02T09:18:55;8.45;;;2.50;;
81591;SDS011;71014;53.394;6.724;2023-07-02T09:21:21;5.13;;;1.80;;
81591;SDS011;71014;53.394;6.724;2023-07-02T09:26:20;5.28;;;1.50;;
81591;SDS011;71014;53.394;6.724;2023-07-02T09:28:46;5.55;;;1.58;;
81591;SDS011;71014;53.394;6.724;2023-07-02T09:31:12;5.30;;;1.60;;
81591;SDS011;71014;53.394;6.724;2023-07-02T09:33:38;7.85;;;1.83;;
81591;SDS011;71014;53.394;6.724;2023-07-02T09:36:04;7.40;;;2.08;;
81591;SDS011;71014;53.394;6.724;2023-07-02T09:38:31;6.00;;;1.85;;
81591;SDS011;71014;53.394;6.724;2023-07-02T09:40:57;5.15;;;1.80;;
81591;SDS011;71014;53.394;6.724;2023-07-02T09:45:50;5.88;;;2.20;;
81591;SDS011;71014;53.394;6.724;2023-07-02T09:48:16;10.63;;;2.13;;
81591;SDS011;71014;53.394;6.724;2023-07-02T09:50:46;7.45;;;2.20;;
81591;SDS011;71014;53.394;6.724;2023-07-02T09:53:13;6.72;;;2.40;;
81591;SDS011;71014;53.394;6.724;2023-07-02T09:58:06;5.55;;;1.92;;
81591;SDS011;71014;53.394;6.724;2023-07-02T10:00:32;8.57;;;2.33;;
81591;SDS011;71014;53.394;6.724;2023-07-02T10:05:34;6.38;;;2.67;;
81591;SDS011;71014;53.394;6.724;2023-07-02T10:08:13;7.32;;;2.17;;
81591;SDS011;71014;53.394;6.724;2023-07-02T10:10:39;8.85;;;2.03;;
81591;SDS011;71014;53.394;6.724;2023-07-02T10:13:05;8.52;;;1.80;;
81591;SDS011;71014;53.394;6.724;2023-07-02T10:15:31;6.30;;;1.63;;
81591;SDS011;71014;53.394;6.724;2023-07-02T10:18:02;8.65;;;1.90;;
81591;SDS011;71014;53.394;6.724;2023-07-02T10:20:32;4.35;;;1.30;;
81591;SDS011;71014;53.394;6.724;2023-07-02T10:22:59;9.10;;;1.52;;
81591;SDS011;71014;53.394;6.724;2023-07-02T10:25:30;5.18;;;1.50;;
81591;SDS011;71014;53.394;6.724;2023-07-02T10:27:56;3.83;;;1.08;;
81591;SDS011;71014;53.394;6.724;2023-07-02T10:30:32;7.45;;;1.80;;
81591;SDS011;71014;53.394;6.724;2023-07-02T10:33:15;5.45;;;1.70;;
81591;SDS011;71014;53.394;6.724;2023-07-02T10:35:42;4.75;;;1.48;;
81591;SDS011;71014;53.394;6.724;2023-07-02T10:38:20;4.63;;;1.67;;
81591;SDS011;71014;53.394;6.724;2023-07-02T10:40:46;7.93;;;2.03;;
81591;SDS011;71014;53.394;6.724;2023-07-02T10:43:13;6.03;;;1.77;;
81591;SDS011;71014;53.394;6.724;2023-07-02T10:45:39;4.65;;;1.60;;
81591;SDS011;71014;53.394;6.724;2023-07-02T10:48:09;11.25;;;2.35;;
81591;SDS011;71014;53.394;6.724;2023-07-02T10:50:37;5.60;;;1.60;;
81591;SDS011;71014;53.394;6.724;2023-07-02T10:53:03;6.68;;;1.80;;
81591;SDS011;71014;53.394;6.724;2023-07-02T10:55:30;4.47;;;1.67;;
81591;SDS011;71014;53.394;6.724;2023-07-02T10:58:29;4.03;;;1.67;;
81591;SDS011;71014;53.394;6.724;2023-07-02T11:00:49;4.25;;;1.90;;
81591;SDS011;71014;53.394;6.724;2023-07-02T11:05:44;6.43;;;2.47;;
81591;SDS011;71014;53.394;6.724;2023-07-02T11:08:11;6.13;;;2.00;;
81591;SDS011;71014;53.394;6.724;2023-07-02T11:10:37;3.97;;;1.52;;
81591;SDS011;71014;53.394;6.724;2023-07-02T11:13:15;5.68;;;2.22;;
81591;SDS011;71014;53.394;6.724;2023-07-02T11:15:42;4.32;;;1.98;;
81591;SDS011;71014;53.394;6.724;2023-07-02T11:18:12;5.63;;;2.10;;
81591;SDS011;71014;53.394;6.724;2023-07-02T11:20:38;13.35;;;1.98;;
81591;SDS011;71014;53.394;6.724;2023-07-02T11:23:05;9.45;;;2.05;;
81591;SDS011;71014;53.394;6.724;2023-07-02T11:25:31;4.85;;;1.92;;
81591;SDS011;71014;53.394;6.724;2023-07-02T11:28:03;6.43;;;1.70;;
81591;SDS011;71014;53.394;6.724;2023-07-02T11:30:29;7.05;;;1.83;;
81591;SDS011;71014;53.394;6.724;2023-07-02T11:32:55;3.90;;;1.40;;
81591;SDS011;71014;53.394;6.724;2023-07-02T11:37:48;4.15;;;1.75;;
81591;SDS011;71014;53.394;6.724;2023-07-02T11:40:14;5.30;;;1.90;;
81591;SDS011;71014;53.394;6.724;2023-07-02T11:42:40;5.60;;;1.65;;
81591;SDS011;71014;53.394;6.724;2023-07-02T11:45:07;5.65;;;1.55;;
81591;SDS011;71014;53.394;6.724;2023-07-02T11:47:33;6.30;;;1.88;;
81591;SDS011;71014;53.394;6.724;2023-07-02T11:49:59;7.15;;;1.63;;
81591;SDS011;71014;53.394;6.724;2023-07-02T11:52:25;6.47;;;1.70;;
81591;SDS011;71014;53.394;6.724;2023-07-02T11:54:51;6.28;;;1.58;;
81591;SDS011;71014;53.394;6.724;2023-07-02T11:59:43;3.90;;;1.67;;
81591;SDS011;71014;53.394;6.724;2023-07-02T12:02:09;4.00;;;1.48;;
81591;SDS011;71014;53.394;6.724;2023-07-02T12:04:35;4.60;;;2.00;;
81591;SDS011;71014;53.394;6.724;2023-07-02T12:07:01;4.10;;;1.75;;
81591;SDS011;71014;53.394;6.724;2023-07-02T12:09:28;4.03;;;1.88;;
81591;SDS011;71014;53.394;6.724;2023-07-02T12:14:20;4.28;;;1.50;;
81591;SDS011;71014;53.394;6.724;2023-07-02T12:19:12;5.22;;;2.10;;
81591;SDS011;71014;53.394;6.724;2023-07-02T12:24:04;6.85;;;2.22;;
81591;SDS011;71014;53.394;6.724;2023-07-02T12:26:35;5.72;;;1.90;;
81591;SDS011;71014;53.394;6.724;2023-07-02T12:29:01;3.20;;;2.10;;
81591;SDS011;71014;53.394;6.724;2023-07-02T12:31:27;4.18;;;2.30;;
81591;SDS011;71014;53.394;6.724;2023-07-02T12:33:53;6.22;;;2.05;;
81591;SDS011;71014;53.394;6.724;2023-07-02T12:36:19;7.85;;;2.20;;
81591;SDS011;71014;53.394;6.724;2023-07-02T12:38:45;5.95;;;2.22;;
81591;SDS011;71014;53.394;6.724;2023-07-02T12:41:11;6.25;;;3.08;;
81591;SDS011;71014;53.394;6.724;2023-07-02T12:43:37;4.65;;;2.33;;
81591;SDS011;71014;53.394;6.724;2023-07-02T12:46:03;8.18;;;2.45;;
81591;SDS011;71014;53.394;6.724;2023-07-02T12:50:57;10.98;;;2.58;;
81591;SDS011;71014;53.394;6.724;2023-07-02T12:53:24;5.50;;;2.00;;
81591;SDS011;71014;53.394;6.724;2023-07-02T12:55:50;5.07;;;2.22;;
81591;SDS011;71014;53.394;6.724;2023-07-02T12:58:16;7.95;;;3.05;;
81591;SDS011;71014;53.394;6.724;2023-07-02T13:00:42;6.32;;;2.75;;
81591;SDS011;71014;53.394;6.724;2023-07-02T13:03:10;6.30;;;2.40;;
81591;SDS011;71014;53.394;6.724;2023-07-02T13:05:36;7.30;;;2.20;;
81591;SDS011;71014;53.394;6.724;2023-07-02T13:10:31;7.97;;;2.50;;
81591;SDS011;71014;53.394;6.724;2023-07-02T13:12:58;6.63;;;2.50;;
81591;SDS011;71014;53.394;6.724;2023-07-02T13:15:23;7.47;;;2.30;;
81591;SDS011;71014;53.394;6.724;2023-07-02T13:17:50;7.22;;;2.35;;
81591;SDS011;71014;53.394;6.724;2023-07-02T13:20:16;5.25;;;2.40;;
81591;SDS011;71014;53.394;6.724;2023-07-02T13:22:42;7.20;;;2.70;;
81591;SDS011;71014;53.394;6.724;2023-07-02T13:25:08;6.35;;;2.80;;
81591;SDS011;71014;53.394;6.724;2023-07-02T13:30:00;6.68;;;2.67;;
81591;SDS011;71014;53.394;6.724;2023-07-02T13:34:52;6.93;;;2.92;;
81591;SDS011;71014;53.394;6.724;2023-07-02T13:37:18;10.77;;;2.83;;
81591;SDS011;71014;53.394;6.724;2023-07-02T13:39:48;6.72;;;2.67;;
81591;SDS011;71014;53.394;6.724;2023-07-02T13:42:14;7.25;;;2.40;;
81591;SDS011;71014;53.394;6.724;2023-07-02T13:44:40;5.43;;;2.72;;
81591;SDS011;71014;53.394;6.724;2023-07-02T13:49:32;9.48;;;3.70;;
81591;SDS011;71014;53.394;6.724;2023-07-02T13:51:59;5.28;;;2.75;;
81591;SDS011;71014;53.394;6.724;2023-07-02T13:56:51;5.93;;;2.17;;
81591;SDS011;71014;53.394;6.724;2023-07-02T13:59:18;4.90;;;2.58;;
81591;SDS011;71014;53.394;6.724;2023-07-02T14:01:44;4.78;;;2.92;;
81591;SDS011;71014;53.394;6.724;2023-07-02T14:04:11;5.85;;;2.40;;
81591;SDS011;71014;53.394;6.724;2023-07-02T14:06:37;7.80;;;2.65;;
81591;SDS011;71014;53.394;6.724;2023-07-02T14:11:29;3.90;;;2.25;;
81591;SDS011;71014;53.394;6.724;2023-07-02T14:13:55;5.60;;;2.53;;
81591;SDS011;71014;53.394;6.724;2023-07-02T14:16:21;4.55;;;2.25;;
81591;SDS011;71014;53.394;6.724;2023-07-02T14:18:49;5.75;;;2.00;;
81591;SDS011;71014;53.394;6.724;2023-07-02T14:21:15;7.15;;;2.28;;
81591;SDS011;71014;53.394;6.724;2023-07-02T14:23:41;6.28;;;2.50;;
81591;SDS011;71014;53.394;6.724;2023-07-02T14:26:07;5.60;;;2.13;;
81591;SDS011;71014;53.394;6.724;2023-07-02T14:28:33;4.60;;;2.17;;
81591;SDS011;71014;53.394;6.724;2023-07-02T14:31:00;4.80;;;2.22;;
81591;SDS011;71014;53.394;6.724;2023-07-02T14:33:27;6.43;;;2.95;;
81591;SDS011;71014;53.394;6.724;2023-07-02T14:35:53;7.72;;;2.40;;
81591;SDS011;71014;53.394;6.724;2023-07-02T14:38:19;7.63;;;2.58;;
81591;SDS011;71014;53.394;6.724;2023-07-02T14:43:11;5.22;;;2.28;;
81591;SDS011;71014;53.394;6.724;2023-07-02T14:45:50;7.50;;;2.70;;
81591;SDS011;71014;53.394;6.724;2023-07-02T14:48:17;7.60;;;2.72;;
81591;SDS011;71014;53.394;6.724;2023-07-02T14:53:11;6.20;;;2.60;;
81591;SDS011;71014;53.394;6.724;2023-07-02T14:55:37;6.00;;;2.38;;
81591;SDS011;71014;53.394;6.724;2023-07-02T14:58:03;8.88;;;3.58;;
81591;SDS011;71014;53.394;6.724;2023-07-02T15:00:29;9.13;;;2.97;;
81591;SDS011;71014;53.394;6.724;2023-07-02T15:02:55;7.53;;;3.35;;
81591;SDS011;71014;53.394;6.724;2023-07-02T15:05:21;5.97;;;2.85;;
81591;SDS011;71014;53.394;6.724;2023-07-02T15:07:47;9.70;;;3.30;;
81591;SDS011;71014;53.394;6.724;2023-07-02T15:10:13;7.70;;;2.80;;
81591;SDS011;71014;53.394;6.724;2023-07-02T15:12:39;8.48;;;2.60;;
81591;SDS011;71014;53.394;6.724;2023-07-02T15:15:05;9.32;;;3.05;;
81591;SDS011;71014;53.394;6.724;2023-07-02T15:17:31;9.45;;;2.70;;
81591;SDS011;71014;53.394;6.724;2023-07-02T15:19:57;10.85;;;3.10;;
81591;SDS011;71014;53.394;6.724;2023-07-02T15:22:24;8.48;;;2.63;;
81591;SDS011;71014;53.394;6.724;2023-07-02T15:24:50;8.93;;;3.20;;
81591;SDS011;71014;53.394;6.724;2023-07-02T15:27:16;5.22;;;2.83;;
81591;SDS011;71014;53.394;6.724;2023-07-02T15:29:42;7.00;;;3.35;;
81591;SDS011;71014;53.394;6.724;2023-07-02T15:32:08;5.50;;;2.38;;
81591;SDS011;71014;53.394;6.724;2023-07-02T15:34:34;8.43;;;3.15;;
81591;SDS011;71014;53.394;6.724;2023-07-02T15:37:00;8.07;;;2.67;;
81591;SDS011;71014;53.394;6.724;2023-07-02T15:39:26;8.10;;;2.80;;
81591;SDS011;71014;53.394;6.724;2023-07-02T15:41:58;8.00;;;2.88;;
81591;SDS011;71014;53.394;6.724;2023-07-02T15:44:24;5.18;;;2.95;;